createdAt,value
2022-08-20T00:01:02.182Z,101078.97
2022-08-20T00:04:06.229Z,101076.16
2022-08-20T00:07:12.789Z,101073.38
2022-08-20T00:10:18.163Z,101077.28
2022-08-20T00:13:27.330Z,101082.09
2022-08-20T00:16:38.094Z,101082.91
2022-08-20T00:19:41.956Z,101090.81
2022-08-20T00:22:47.742Z,101092.47
2022-08-20T00:25:52.974Z,101076.25
2022-08-20T00:28:56.667Z,101073.16
2022-08-20T00:32:03.025Z,101066.69
2022-08-20T00:35:07.775Z,101069.78
2022-08-20T00:38:17.651Z,101076.53
2022-08-20T00:41:25.955Z,101072.88
2022-08-20T00:44:30.021Z,101076.00
2022-08-20T00:47:35.631Z,101083.59
2022-08-20T00:50:41.460Z,101077.97
2022-08-20T00:53:45.978Z,101079.09
2022-08-20T00:56:57.130Z,101078.28
2022-08-20T01:00:02.679Z,101082.19
2022-08-20T01:03:09.942Z,101099.84
2022-08-20T01:06:14.043Z,101101.00
2022-08-20T01:09:18.523Z,101098.22
2022-08-20T01:12:46.382Z,101102.13
2022-08-20T01:15:55.318Z,101107.75
2022-08-20T01:19:04.953Z,101108.88
2022-08-20T01:22:54.951Z,101108.03
2022-08-20T01:26:06.272Z,101104.38
2022-08-20T01:29:14.132Z,101110.28
2022-08-20T01:32:17.823Z,101112.88
2022-08-20T01:35:25.697Z,101114.53
2022-08-20T01:38:31.370Z,101113.69
2022-08-20T01:41:54.091Z,101120.16
2022-08-20T01:44:58.227Z,101122.41
2022-08-20T01:48:05.371Z,101120.72
2022-08-20T01:51:14.918Z,101126.31
2022-08-20T01:54:19.180Z,101123.53
2022-08-20T01:57:27.868Z,101119.88
2022-08-20T02:00:35.175Z,101114.56
2022-08-20T02:03:44.408Z,101106.16
2022-08-20T02:06:57.248Z,101115.69
2022-08-20T02:10:02.814Z,101104.47
2022-08-20T02:13:10.220Z,101110.06
2022-08-20T02:16:14.428Z,101128.03
2022-08-20T02:19:23.224Z,101128.03
2022-08-20T02:22:34.309Z,101130.84
2022-08-20T02:25:41.658Z,101120.75
2022-08-20T02:28:49.538Z,101116.28
2022-08-20T02:32:28.376Z,101128.66
2022-08-20T02:35:19.243Z,101124.16
2022-08-20T02:38:23.482Z,101125.84
2022-08-20T02:41:27.322Z,101118.56
2022-08-20T02:44:33.639Z,101118.56
2022-08-20T02:47:39.059Z,101116.88
2022-08-20T02:50:45.231Z,101117.72
2022-08-20T02:53:51.175Z,101125.28
2022-08-20T02:56:55.149Z,101125.28
2022-08-20T03:00:02.282Z,101119.16
2022-08-20T03:03:08.336Z,101119.16
2022-08-20T03:06:14.024Z,101117.47
2022-08-20T03:09:17.809Z,101115.78
2022-08-20T03:12:22.542Z,101118.59
2022-08-20T03:15:28.946Z,101123.06
2022-08-20T03:18:36.979Z,101127.00
2022-08-20T03:21:41.697Z,101125.34
2022-08-20T03:24:46.325Z,101129.28
2022-08-20T03:27:54.308Z,101122.84
2022-08-20T03:31:01.385Z,101125.94
2022-08-20T03:34:06.555Z,101125.09
2022-08-20T03:37:11.755Z,101129.88
2022-08-20T03:40:20.177Z,101129.03
2022-08-20T03:43:25.950Z,101126.53
2022-08-20T03:46:31.837Z,101133.78
2022-08-20T03:49:37.396Z,101139.41
2022-08-20T03:52:41.360Z,101143.34
2022-08-20T03:55:54.352Z,101144.19
2022-08-20T03:58:58.622Z,101148.97
2022-08-20T04:02:03.808Z,101153.72
2022-08-20T04:05:08.901Z,101151.19
2022-08-20T04:08:14.785Z,101152.03
2022-08-20T04:11:18.545Z,101143.91
2022-08-20T04:14:22.297Z,101145.06
2022-08-20T04:17:28.183Z,101150.38
2022-08-20T04:20:31.879Z,101154.31
2022-08-20T04:23:35.625Z,101156.28
2022-08-20T04:26:39.385Z,101156.56
2022-08-20T04:29:44.616Z,101161.31
2022-08-20T04:32:50.696Z,101163.00
2022-08-20T04:35:55.220Z,101164.13
2022-08-20T04:38:59.155Z,101165.28
2022-08-20T04:42:02.854Z,101166.09
2022-08-20T04:45:08.683Z,101166.94
2022-08-20T04:48:15.450Z,101161.31
2022-08-20T04:51:22.775Z,101170.03
2022-08-20T04:54:27.041Z,101161.91
2022-08-20T04:57:30.904Z,101171.44
2022-08-20T05:00:35.779Z,101182.66
2022-08-20T05:03:41.817Z,101177.03
2022-08-20T05:06:45.696Z,101182.66
2022-08-20T05:09:49.479Z,101185.75
2022-08-20T05:12:56.517Z,101173.72
2022-08-20T05:16:02.053Z,101177.63
2022-08-20T05:19:08.714Z,101169.22
2022-08-20T05:22:12.737Z,101174.84
2022-08-20T05:25:16.468Z,101175.13
2022-08-20T05:28:24.278Z,101175.13
2022-08-20T05:31:32.182Z,101176.56
2022-08-20T05:34:38.267Z,101178.22
2022-08-20T05:37:42.361Z,101171.78
2022-08-20T05:40:47.270Z,101172.63
2022-08-20T05:43:51.635Z,101170.97
2022-08-20T05:46:55.567Z,101178.22
2022-08-20T05:50:02.175Z,101178.78
2022-08-20T05:53:06.167Z,101184.91
2022-08-20T05:56:11.398Z,101171.19
2022-08-20T05:59:15.255Z,101184.38
2022-08-20T06:02:36.332Z,101177.09
2022-08-20T06:05:41.810Z,101186.91
2022-08-20T06:08:45.574Z,101182.72
2022-08-20T06:11:49.429Z,101179.31
2022-08-20T06:14:53.226Z,101175.41
2022-08-20T06:17:58.149Z,101188.25
2022-08-20T06:21:03.848Z,101184.34
2022-08-20T06:24:08.676Z,101184.34
2022-08-20T06:27:15.648Z,101197.22
2022-08-20T06:30:19.394Z,101197.22
2022-08-20T06:33:23.163Z,101194.72
2022-08-20T06:36:28.402Z,101195.53
2022-08-20T06:39:32.377Z,101199.19
2022-08-20T06:42:36.432Z,101201.16
2022-08-20T06:45:40.689Z,101200.31
2022-08-20T06:48:44.458Z,101205.06
2022-08-20T06:51:52.074Z,101210.69
2022-08-20T06:54:55.973Z,101210.69
2022-08-20T06:58:37.302Z,101222.16
2022-08-20T07:01:42.434Z,101214.34
2022-08-20T07:04:46.287Z,101222.75
2022-08-20T07:07:51.413Z,101218.81
2022-08-20T07:10:55.276Z,101216.28
2022-08-20T07:13:59.423Z,101219.38
2022-08-20T07:17:04.082Z,101220.22
2022-08-20T07:20:16.498Z,101221.88
2022-08-20T07:23:21.706Z,101233.09
2022-08-20T07:26:25.568Z,101225.56
2022-08-20T07:29:49.351Z,101233.97
2022-08-20T07:32:52.084Z,101234.78
2022-08-20T07:35:57.287Z,101242.38
2022-08-20T07:39:05.858Z,101239.56
2022-08-20T07:42:10.227Z,101246.00
2022-08-20T07:45:16.481Z,101242.38
2022-08-20T07:48:31.443Z,101234.78
2022-08-20T07:51:36.734Z,101242.06
2022-08-20T07:54:42.696Z,101240.38
2022-08-20T07:57:46.913Z,101246.00
2022-08-20T08:00:51.477Z,101248.78
2022-08-20T08:03:56.968Z,101240.38
2022-08-20T08:07:01.504Z,101240.09
2022-08-20T08:10:09.035Z,101238.16
2022-08-20T08:13:14.608Z,101251.00
2022-08-20T08:16:20.175Z,101241.47
2022-08-20T08:19:25.690Z,101245.41
2022-08-20T08:22:31.686Z,101240.66
2022-08-20T08:25:37.003Z,101244.28
2022-08-20T08:28:41.311Z,101241.72
2022-08-20T08:31:45.839Z,101252.94
2022-08-20T08:34:49.700Z,101253.78
2022-08-20T08:37:54.187Z,101252.66
2022-08-20T08:41:04.668Z,101252.66
2022-08-20T08:44:11.710Z,101253.78
2022-08-20T08:47:21.925Z,101252.66
2022-08-20T08:50:53.650Z,101258.28
2022-08-20T08:53:55.775Z,101258.28
2022-08-20T08:57:01.251Z,101259.94
2022-08-20T09:00:09.940Z,101261.91
2022-08-20T09:03:22.029Z,101260.78
2022-08-20T09:06:29.239Z,101262.72
2022-08-20T09:09:39.521Z,101269.19
2022-08-20T09:12:47.848Z,101264.41
2022-08-20T09:15:52.611Z,101270.03
2022-08-20T09:18:57.775Z,101265.25
2022-08-20T09:22:09.757Z,101273.94
2022-08-20T09:25:16.105Z,101268.84
